VLG1321 LEAL-LEBL
Flight info
| Callsign | VLG1321 |
|---|---|
| Flight time | 0h 44m |
| Altitude | 30000 |
| Route | MITOS N851 IZA N856 MARTA |
| Aircraft | A320/M-SDE3FGHIRWY/LB1 |
Departure
| Time | 2026-05-04 18:10 |
|---|---|
| Airport | Alicante-Elche Miguel Hernández Airport (LEAL) |
Arrival
| Time | 2026-05-04 18:55 |
|---|---|
| Airport | Josep Tarradellas Barcelona-El Prat Airport (LEBL) |
| Time | Latitude | Longitude | Altitude | Speed | Heading |
|---|---|---|---|---|---|
| 2026-05-04 17:40 | 38.28518 | -0.55233 | 88 ft | 0 kts | 10° |
| 2026-05-04 17:57 | 38.28499 | -0.55237 | 91 ft | 4 kts | 8° |
| 2026-05-04 17:57 | 38.28472 | -0.55241 | 91 ft | 4 kts | 356° |
| 2026-05-04 17:58 | 38.28448 | -0.55233 | 90 ft | 4 kts | 309° |
| 2026-05-04 17:58 | 38.28444 | -0.55224 | 90 ft | 0 kts | 280° |
| 2026-05-04 18:01 | 38.28444 | -0.55226 | 88 ft | 2 kts | 280° |
| 2026-05-04 18:01 | 38.28451 | -0.55276 | 89 ft | 8 kts | 280° |
| 2026-05-04 18:02 | 38.28471 | -0.55418 | 95 ft | 9 kts | 279° |
| 2026-05-04 18:02 | 38.28482 | -0.55495 | 94 ft | 9 kts | 281° |
| 2026-05-04 18:02 | 38.28482 | -0.55579 | 96 ft | 10 kts | 241° |
| 2026-05-04 18:02 | 38.28422 | -0.55608 | 97 ft | 9 kts | 191° |
| 2026-05-04 18:03 | 38.28384 | -0.55620 | 101 ft | 5 kts | 209° |
| 2026-05-04 18:03 | 38.28372 | -0.55653 | 100 ft | 4 kts | 268° |
| 2026-05-04 18:03 | 38.28376 | -0.55678 | 101 ft | 3 kts | 281° |
| 2026-05-04 18:03 | 38.28382 | -0.55720 | 101 ft | 7 kts | 279° |
| 2026-05-04 18:04 | 38.28390 | -0.55780 | 103 ft | 6 kts | 280° |
| 2026-05-04 18:04 | 38.28396 | -0.55823 | 103 ft | 6 kts | 281° |
| 2026-05-04 18:04 | 38.28414 | -0.55953 | 105 ft | 8 kts | 279° |
| 2026-05-04 18:05 | 38.28428 | -0.56047 | 108 ft | 14 kts | 279° |
| 2026-05-04 18:05 | 38.28446 | -0.56182 | 108 ft | 16 kts | 280° |
| 2026-05-04 18:05 | 38.28466 | -0.56322 | 111 ft | 16 kts | 280° |
| 2026-05-04 18:05 | 38.28482 | -0.56444 | 116 ft | 12 kts | 280° |
| 2026-05-04 18:06 | 38.28510 | -0.56641 | 121 ft | 16 kts | 280° |
| 2026-05-04 18:06 | 38.28527 | -0.56763 | 123 ft | 11 kts | 279° |
| 2026-05-04 18:06 | 38.28539 | -0.56851 | 129 ft | 12 kts | 280° |
| 2026-05-04 18:07 | 38.28558 | -0.56981 | 136 ft | 17 kts | 281° |
| 2026-05-04 18:07 | 38.28575 | -0.57104 | 141 ft | 11 kts | 280° |
| 2026-05-04 18:07 | 38.28591 | -0.57214 | 146 ft | 15 kts | 280° |
| 2026-05-04 18:07 | 38.28605 | -0.57317 | 150 ft | 9 kts | 279° |
| 2026-05-04 18:08 | 38.28614 | -0.57383 | 151 ft | 7 kts | 279° |
| 2026-05-04 18:08 | 38.28619 | -0.57465 | 155 ft | 9 kts | 260° |
| 2026-05-04 18:08 | 38.28586 | -0.57502 | 156 ft | 4 kts | 193° |
| 2026-05-04 18:08 | 38.28544 | -0.57511 | 157 ft | 9 kts | 189° |
| 2026-05-04 18:09 | 38.28448 | -0.57465 | 156 ft | 4 kts | 100° |
| 2026-05-04 18:09 | 38.28353 | -0.56796 | 125 ft | 104 kts | 100° |
| 2026-05-04 18:10 | 38.28190 | -0.55627 | 125 ft | 159 kts | 98° |
| 2026-05-04 18:10 | 38.27985 | -0.54272 | 797 ft | 155 kts | 104° |
| 2026-05-04 18:10 | 38.27762 | -0.52924 | 1444 ft | 160 kts | 103° |
| 2026-05-04 18:10 | 38.27505 | -0.51433 | 1810 ft | 184 kts | 103° |
| 2026-05-04 18:11 | 38.27357 | -0.49736 | 2211 ft | 205 kts | 84° |
| 2026-05-04 18:11 | 38.27899 | -0.47971 | 2482 ft | 235 kts | 57° |
| 2026-05-04 18:11 | 38.28889 | -0.46158 | 2900 ft | 261 kts | 56° |
| 2026-05-04 18:11 | 38.29941 | -0.44201 | 3652 ft | 273 kts | 56° |
| 2026-05-04 18:12 | 38.31014 | -0.42173 | 4551 ft | 279 kts | 55° |
| 2026-05-04 18:12 | 38.32104 | -0.40094 | 5437 ft | 285 kts | 54° |
| 2026-05-04 18:12 | 38.33064 | -0.37852 | 6307 ft | 293 kts | 66° |
| 2026-05-04 18:12 | 38.33818 | -0.35415 | 7162 ft | 298 kts | 67° |
| 2026-05-04 18:13 | 38.34580 | -0.32934 | 8021 ft | 303 kts | 67° |
| 2026-05-04 18:13 | 38.35355 | -0.30411 | 8887 ft | 308 kts | 67° |
| 2026-05-04 18:13 | 38.36969 | -0.25268 | 10287 ft | 329 kts | 66° |
| 2026-05-04 18:14 | 38.37892 | -0.22489 | 10575 ft | 351 kts | 66° |
| 2026-05-04 18:14 | 38.38874 | -0.19579 | 11161 ft | 362 kts | 66° |
| 2026-05-04 18:14 | 38.39883 | -0.16601 | 11867 ft | 369 kts | 66° |
| 2026-05-04 18:15 | 38.41934 | -0.10490 | 13292 ft | 381 kts | 66° |
| 2026-05-04 18:15 | 38.44031 | -0.04162 | 14602 ft | 392 kts | 67° |
| 2026-05-04 18:15 | 38.45083 | -0.00978 | 15242 ft | 397 kts | 67° |
| 2026-05-04 18:16 | 38.46154 | 0.02291 | 15892 ft | 401 kts | 67° |
| 2026-05-04 18:16 | 38.47223 | 0.05596 | 16540 ft | 406 kts | 68° |
| 2026-05-04 18:16 | 38.48298 | 0.08950 | 17167 ft | 410 kts | 68° |
| 2026-05-04 18:17 | 38.50469 | 0.15772 | 18404 ft | 419 kts | 68° |
| 2026-05-04 18:17 | 38.51576 | 0.19239 | 18927 ft | 424 kts | 68° |
| 2026-05-04 18:17 | 38.53925 | 0.26218 | 19998 ft | 432 kts | 58° |
| 2026-05-04 18:18 | 38.55746 | 0.29199 | 20512 ft | 433 kts | 40° |
| 2026-05-04 18:18 | 38.58169 | 0.31436 | 21033 ft | 429 kts | 22° |
| 2026-05-04 18:18 | 38.60905 | 0.32957 | 21562 ft | 430 kts | 17° |
| 2026-05-04 18:18 | 38.63687 | 0.34421 | 22089 ft | 434 kts | 17° |
| 2026-05-04 18:19 | 38.69329 | 0.37383 | 23187 ft | 442 kts | 17° |
| 2026-05-04 18:19 | 38.72189 | 0.38893 | 23660 ft | 447 kts | 17° |
| 2026-05-04 18:19 | 38.75077 | 0.40425 | 24056 ft | 452 kts | 17° |
| 2026-05-04 18:20 | 38.77951 | 0.41957 | 24463 ft | 455 kts | 17° |
| 2026-05-04 18:20 | 38.80882 | 0.43524 | 24895 ft | 458 kts | 17° |
| 2026-05-04 18:20 | 38.83831 | 0.45102 | 25314 ft | 461 kts | 17° |
| 2026-05-04 18:20 | 38.86802 | 0.46692 | 25725 ft | 464 kts | 17° |
| 2026-05-04 18:21 | 38.89791 | 0.48291 | 26161 ft | 467 kts | 17° |
| 2026-05-04 18:21 | 38.92794 | 0.49898 | 26577 ft | 469 kts | 17° |
| 2026-05-04 18:21 | 38.95813 | 0.51515 | 26968 ft | 471 kts | 17° |
| 2026-05-04 18:21 | 38.98846 | 0.53141 | 27349 ft | 474 kts | 17° |
| 2026-05-04 18:22 | 39.01858 | 0.54756 | 27736 ft | 476 kts | 17° |
| 2026-05-04 18:22 | 39.04922 | 0.56400 | 27889 ft | 476 kts | 17° |
| 2026-05-04 18:22 | 39.07926 | 0.58023 | 27916 ft | 461 kts | 17° |
| 2026-05-04 18:22 | 39.10853 | 0.59605 | 27911 ft | 454 kts | 17° |
| 2026-05-04 18:23 | 39.13756 | 0.61172 | 27930 ft | 452 kts | 17° |
| 2026-05-04 18:23 | 39.16653 | 0.62732 | 27915 ft | 450 kts | 17° |
| 2026-05-04 18:23 | 39.19539 | 0.64287 | 27918 ft | 450 kts | 17° |
| 2026-05-04 18:23 | 39.22424 | 0.65841 | 27917 ft | 449 kts | 17° |
| 2026-05-04 18:24 | 39.24337 | 0.66871 | 27916 ft | 449 kts | 17° |
| 2026-05-04 18:24 | 39.27218 | 0.68422 | 27918 ft | 449 kts | 17° |
| 2026-05-04 18:24 | 39.30105 | 0.69981 | 27918 ft | 449 kts | 17° |
| 2026-05-04 18:24 | 39.33920 | 0.72047 | 27917 ft | 449 kts | 17° |
| 2026-05-04 18:25 | 39.36798 | 0.73611 | 27947 ft | 449 kts | 17° |
| 2026-05-04 18:25 | 39.39674 | 0.75174 | 27945 ft | 449 kts | 17° |
| 2026-05-04 18:25 | 39.41581 | 0.76211 | 27942 ft | 448 kts | 17° |
| 2026-05-04 18:25 | 39.44454 | 0.77774 | 27909 ft | 448 kts | 17° |
| 2026-05-04 18:26 | 39.47331 | 0.79341 | 27901 ft | 449 kts | 17° |
| 2026-05-04 18:26 | 39.50208 | 0.80910 | 27904 ft | 449 kts | 17° |
| 2026-05-04 18:26 | 39.53088 | 0.82479 | 27903 ft | 449 kts | 17° |
| 2026-05-04 18:26 | 39.55966 | 0.84050 | 27902 ft | 449 kts | 17° |
| 2026-05-04 18:27 | 39.58848 | 0.85626 | 27929 ft | 449 kts | 18° |
| 2026-05-04 18:27 | 39.61726 | 0.87200 | 27923 ft | 449 kts | 18° |
| 2026-05-04 18:27 | 39.64610 | 0.88778 | 27920 ft | 449 kts | 18° |
| 2026-05-04 18:27 | 39.67489 | 0.90351 | 27917 ft | 449 kts | 18° |
| 2026-05-04 18:28 | 39.70368 | 0.91925 | 27917 ft | 449 kts | 18° |
| 2026-05-04 18:28 | 39.73206 | 0.93480 | 27918 ft | 449 kts | 18° |
| 2026-05-04 18:28 | 39.76084 | 0.95061 | 27918 ft | 449 kts | 18° |
| 2026-05-04 18:28 | 39.78959 | 0.96643 | 27920 ft | 449 kts | 18° |
| 2026-05-04 18:29 | 39.81835 | 0.98227 | 27940 ft | 449 kts | 18° |
| 2026-05-04 18:29 | 39.84711 | 0.99810 | 27935 ft | 449 kts | 18° |
| 2026-05-04 18:29 | 39.87589 | 1.01395 | 27933 ft | 448 kts | 18° |
| 2026-05-04 18:29 | 39.90457 | 1.02978 | 27923 ft | 448 kts | 18° |
| 2026-05-04 18:30 | 39.96194 | 1.06152 | 27916 ft | 448 kts | 18° |
| 2026-05-04 18:30 | 39.99059 | 1.07733 | 27918 ft | 448 kts | 18° |
| 2026-05-04 18:30 | 40.01883 | 1.09293 | 27756 ft | 444 kts | 18° |
| 2026-05-04 18:31 | 40.04712 | 1.10859 | 27520 ft | 439 kts | 18° |
| 2026-05-04 18:31 | 40.07510 | 1.12414 | 27261 ft | 436 kts | 18° |
| 2026-05-04 18:31 | 40.10295 | 1.13965 | 27001 ft | 434 kts | 18° |
| 2026-05-04 18:31 | 40.13072 | 1.15510 | 26721 ft | 433 kts | 18° |
| 2026-05-04 18:32 | 40.15841 | 1.17048 | 26468 ft | 432 kts | 18° |
| 2026-05-04 18:32 | 40.18606 | 1.18584 | 26217 ft | 431 kts | 18° |
| 2026-05-04 18:32 | 40.21320 | 1.20096 | 25971 ft | 429 kts | 18° |
| 2026-05-04 18:32 | 40.24065 | 1.21628 | 25726 ft | 428 kts | 18° |
| 2026-05-04 18:33 | 40.26796 | 1.23155 | 25500 ft | 425 kts | 19° |
| 2026-05-04 18:33 | 40.29505 | 1.24671 | 25067 ft | 422 kts | 19° |
| 2026-05-04 18:33 | 40.32191 | 1.26231 | 24551 ft | 424 kts | 24° |
| 2026-05-04 18:33 | 40.34694 | 1.28296 | 24021 ft | 428 kts | 36° |
| 2026-05-04 18:34 | 40.36878 | 1.30940 | 23603 ft | 427 kts | 47° |
| 2026-05-04 18:34 | 40.38668 | 1.34021 | 23161 ft | 423 kts | 56° |
| 2026-05-04 18:34 | 40.40327 | 1.37177 | 22772 ft | 419 kts | 55° |
| 2026-05-04 18:34 | 40.41957 | 1.40264 | 22389 ft | 415 kts | 55° |
| 2026-05-04 18:35 | 40.43594 | 1.43367 | 22007 ft | 412 kts | 55° |
| 2026-05-04 18:35 | 40.45219 | 1.46449 | 21624 ft | 409 kts | 55° |
| 2026-05-04 18:35 | 40.46830 | 1.49508 | 21262 ft | 406 kts | 55° |
| 2026-05-04 18:35 | 40.48426 | 1.52546 | 20869 ft | 402 kts | 56° |
| 2026-05-04 18:36 | 40.50006 | 1.55556 | 20493 ft | 399 kts | 56° |
| 2026-05-04 18:36 | 40.51578 | 1.58553 | 20126 ft | 397 kts | 55° |
| 2026-05-04 18:36 | 40.53142 | 1.61528 | 19758 ft | 394 kts | 55° |
| 2026-05-04 18:36 | 40.54694 | 1.64485 | 19378 ft | 392 kts | 55° |
| 2026-05-04 18:37 | 40.56255 | 1.67466 | 18663 ft | 400 kts | 56° |
| 2026-05-04 18:37 | 40.57811 | 1.70443 | 18385 ft | 390 kts | 56° |
| 2026-05-04 18:37 | 40.59337 | 1.73367 | 17872 ft | 385 kts | 56° |
| 2026-05-04 18:37 | 40.60824 | 1.76216 | 17327 ft | 381 kts | 56° |
| 2026-05-04 18:38 | 40.62317 | 1.79074 | 16785 ft | 377 kts | 56° |
| 2026-05-04 18:38 | 40.63793 | 1.81907 | 16254 ft | 373 kts | 56° |
| 2026-05-04 18:38 | 40.65251 | 1.84714 | 15734 ft | 370 kts | 56° |
| 2026-05-04 18:38 | 40.66695 | 1.87495 | 15229 ft | 366 kts | 56° |
| 2026-05-04 18:39 | 40.68151 | 1.90226 | 14736 ft | 362 kts | 51° |
| 2026-05-04 18:39 | 40.69898 | 1.92580 | 14230 ft | 358 kts | 38° |
| 2026-05-04 18:39 | 40.71946 | 1.94391 | 13734 ft | 353 kts | 26° |
| 2026-05-04 18:39 | 40.74092 | 1.95924 | 13264 ft | 348 kts | 26° |
| 2026-05-04 18:40 | 40.76205 | 1.97433 | 12880 ft | 345 kts | 26° |
| 2026-05-04 18:40 | 40.78283 | 1.98920 | 12485 ft | 343 kts | 26° |
| 2026-05-04 18:40 | 40.80373 | 2.00418 | 12097 ft | 341 kts | 26° |
| 2026-05-04 18:40 | 40.82453 | 2.01910 | 11712 ft | 339 kts | 26° |
| 2026-05-04 18:41 | 40.84519 | 2.03393 | 11332 ft | 337 kts | 26° |
| 2026-05-04 18:41 | 40.86570 | 2.04868 | 10948 ft | 335 kts | 26° |
| 2026-05-04 18:41 | 40.88596 | 2.06323 | 10741 ft | 327 kts | 26° |
| 2026-05-04 18:41 | 40.90569 | 2.07740 | 10354 ft | 321 kts | 26° |
| 2026-05-04 18:42 | 40.92526 | 2.09146 | 9874 ft | 317 kts | 26° |
| 2026-05-04 18:42 | 40.94439 | 2.10556 | 9761 ft | 316 kts | 27° |
| 2026-05-04 18:42 | 40.96343 | 2.11987 | 9496 ft | 314 kts | 27° |
| 2026-05-04 18:42 | 40.98233 | 2.13416 | 9232 ft | 312 kts | 27° |
| 2026-05-04 18:43 | 41.00111 | 2.14834 | 8969 ft | 310 kts | 27° |
| 2026-05-04 18:43 | 41.01955 | 2.16228 | 8717 ft | 308 kts | 27° |
| 2026-05-04 18:43 | 41.03813 | 2.17632 | 8457 ft | 307 kts | 27° |
| 2026-05-04 18:43 | 41.05662 | 2.19028 | 8211 ft | 305 kts | 27° |
| 2026-05-04 18:44 | 41.07501 | 2.20416 | 8000 ft | 303 kts | 27° |
| 2026-05-04 18:44 | 41.08712 | 2.21335 | 7885 ft | 303 kts | 27° |
| 2026-05-04 18:44 | 41.11162 | 2.23197 | 7394 ft | 303 kts | 27° |
| 2026-05-04 18:44 | 41.12981 | 2.24577 | 6976 ft | 299 kts | 27° |
| 2026-05-04 18:45 | 41.14764 | 2.25932 | 6569 ft | 292 kts | 27° |
| 2026-05-04 18:45 | 41.16490 | 2.27252 | 6146 ft | 280 kts | 27° |
| 2026-05-04 18:45 | 41.18124 | 2.28505 | 5715 ft | 270 kts | 27° |
| 2026-05-04 18:45 | 41.19725 | 2.29723 | 5289 ft | 261 kts | 27° |
| 2026-05-04 18:46 | 41.21290 | 2.30892 | 4903 ft | 257 kts | 27° |
| 2026-05-04 18:46 | 41.22847 | 2.32042 | 4605 ft | 255 kts | 27° |
| 2026-05-04 18:46 | 41.24393 | 2.33173 | 4291 ft | 253 kts | 27° |
| 2026-05-04 18:46 | 41.25930 | 2.34302 | 3993 ft | 252 kts | 27° |
| 2026-05-04 18:47 | 41.27466 | 2.35423 | 3696 ft | 251 kts | 27° |
| 2026-05-04 18:47 | 41.28995 | 2.36538 | 3389 ft | 250 kts | 27° |
| 2026-05-04 18:47 | 41.30494 | 2.37637 | 3064 ft | 249 kts | 27° |
| 2026-05-04 18:47 | 41.31995 | 2.38736 | 2999 ft | 246 kts | 27° |
| 2026-05-04 18:48 | 41.33501 | 2.39838 | 3003 ft | 247 kts | 27° |
| 2026-05-04 18:48 | 41.35008 | 2.40943 | 3004 ft | 247 kts | 27° |
| 2026-05-04 18:48 | 41.36576 | 2.41820 | 3001 ft | 243 kts | 5° |
| 2026-05-04 18:48 | 41.38190 | 2.41592 | 3003 ft | 226 kts | 330° |
| 2026-05-04 18:49 | 41.39342 | 2.40343 | 3001 ft | 209 kts | 299° |
| 2026-05-04 18:49 | 41.39811 | 2.38593 | 3001 ft | 199 kts | 269° |
| 2026-05-04 18:49 | 41.39576 | 2.36828 | 3004 ft | 194 kts | 244° |
| 2026-05-04 18:49 | 41.39025 | 2.35202 | 3000 ft | 188 kts | 244° |
| 2026-05-04 18:50 | 41.38493 | 2.33642 | 3001 ft | 183 kts | 244° |
| 2026-05-04 18:50 | 41.37982 | 2.32138 | 3003 ft | 179 kts | 244° |
| 2026-05-04 18:50 | 41.37470 | 2.30631 | 3004 ft | 178 kts | 244° |
| 2026-05-04 18:50 | 41.36958 | 2.29122 | 2960 ft | 178 kts | 244° |
| 2026-05-04 18:51 | 41.36450 | 2.27627 | 2796 ft | 177 kts | 245° |
| 2026-05-04 18:51 | 41.35945 | 2.26142 | 2614 ft | 174 kts | 246° |
| 2026-05-04 18:51 | 41.35452 | 2.24690 | 2373 ft | 171 kts | 246° |
| 2026-05-04 18:51 | 41.34969 | 2.23270 | 2133 ft | 166 kts | 246° |
| 2026-05-04 18:52 | 41.34499 | 2.21890 | 1911 ft | 162 kts | 246° |
| 2026-05-04 18:52 | 41.34041 | 2.20545 | 1714 ft | 157 kts | 246° |
| 2026-05-04 18:52 | 41.33599 | 2.19248 | 1485 ft | 154 kts | 246° |
| 2026-05-04 18:52 | 41.33176 | 2.18007 | 1293 ft | 145 kts | 245° |
| 2026-05-04 18:53 | 41.32765 | 2.16801 | 1096 ft | 143 kts | 245° |
| 2026-05-04 18:53 | 41.32359 | 2.15610 | 918 ft | 139 kts | 246° |
| 2026-05-04 18:53 | 41.31964 | 2.14449 | 692 ft | 138 kts | 247° |
| 2026-05-04 18:53 | 41.31573 | 2.13292 | 532 ft | 138 kts | 245° |
| 2026-05-04 18:54 | 41.31176 | 2.12142 | 313 ft | 136 kts | 244° |
| 2026-05-04 18:54 | 41.30784 | 2.10996 | 149 ft | 135 kts | 244° |
| 2026-05-04 18:54 | 41.30402 | 2.09863 | 30 ft | 127 kts | 244° |
| 2026-05-04 18:54 | 41.30076 | 2.08923 | 20 ft | 90 kts | 246° |
| 2026-05-04 18:55 | 41.29887 | 2.08372 | 25 ft | 41 kts | 245° |
| 2026-05-04 18:55 | 41.29647 | 2.07880 | 16 ft | 16 kts | 217° |
| 2026-05-04 18:55 | 41.29615 | 2.07848 | 17 ft | 1 kts | 216° |
| 2026-05-04 18:56 | 41.29581 | 2.07816 | 16 ft | 10 kts | 215° |
| 2026-05-04 18:56 | 41.29536 | 2.07773 | 16 ft | 6 kts | 215° |
| 2026-05-04 18:56 | 41.29516 | 2.07754 | 16 ft | 2 kts | 215° |
| 2026-05-04 18:56 | 41.29486 | 2.07725 | 16 ft | 9 kts | 220° |
| 2026-05-04 18:57 | 41.29451 | 2.07646 | 17 ft | 11 kts | 246° |
| 2026-05-04 18:57 | 41.29419 | 2.07553 | 17 ft | 10 kts | 244° |
| 2026-05-04 18:57 | 41.29370 | 2.07536 | 16 ft | 7 kts | 158° |
| 2026-05-04 18:57 | 41.29333 | 2.07560 | 16 ft | 5 kts | 156° |
| 2026-05-04 18:58 | 41.29306 | 2.07576 | 17 ft | 3 kts | 156° |
| 2026-05-04 18:58 | 41.29292 | 2.07585 | 17 ft | 5 kts | 155° |
| 2026-05-04 18:58 | 41.29239 | 2.07617 | 18 ft | 9 kts | 155° |
| 2026-05-04 18:58 | 41.29185 | 2.07650 | 19 ft | 7 kts | 155° |
| 2026-05-04 18:59 | 41.29148 | 2.07655 | 19 ft | 5 kts | 197° |
| 2026-05-04 18:59 | 41.29113 | 2.07648 | 19 ft | 5 kts | 166° |
| 2026-05-04 18:59 | 41.29076 | 2.07670 | 19 ft | 6 kts | 156° |
| 2026-05-04 18:59 | 41.29059 | 2.07681 | 21 ft | 2 kts | 155° |
| 2026-05-04 19:00 | 41.29055 | 2.07683 | 19 ft | 0 kts | 155° |